Time;durP1;ratioP1;P1;durP2;ratioP2;P2;SDS_P1;SDS_P2;PMS_P1;PMS_P2;Temp;Humidity;BMP_temperature;BMP_pressure;BME280_temperature;BME280_humidity;BME280_pressure;Samples;Min_cycle;Max_cycle;Signal;HPM_P1;HPM_P2
2021/11/10 20:22:36;;;;;;;8.15;6.07;;;;;;;-142.99;100.00;49779.44;4978516;27;2887109;-78
2021/11/10 20:25:14;;;;;;;10.77;7.35;;;;;;;-142.99;100.00;49777.44;5057482;28;20072;-77
2021/11/10 20:27:45;;;;;;;12.13;7.30;;;;;;;-142.99;100.00;49747.63;5023006;28;20873;-77
2021/11/10 20:30:16;;;;;;;10.93;7.05;;;;;;;-142.99;100.00;49777.44;5061256;28;20427;-76
2021/11/10 20:32:43;;;;;;;8.45;6.65;;;;;;;-142.99;100.00;49747.63;4994075;28;20048;-76
2021/11/10 20:35:14;;;;;;;10.98;6.22;;;;;;;-142.99;100.00;49791.38;5036954;28;20048;-76
2021/11/10 20:37:41;;;;;;;10.43;6.85;;;;;;;-142.99;100.00;49781.44;5039620;28;20109;-76
2021/11/10 20:40:15;;;;;;;9.95;6.70;;;;;;;-142.99;100.00;49757.56;5071047;28;20052;-76
2021/11/10 20:42:45;;;;;;;14.75;8.10;;;;;;;-142.99;100.00;49761.56;5022808;28;20509;-78
2021/11/10 20:45:17;;;;;;;18.75;8.25;;;;;;;-142.99;100.00;49757.56;5006810;28;20049;-81
2021/11/10 20:47:45;;;;;;;12.43;8.23;;;;;;;-142.99;100.00;49821.19;5015901;28;20074;-75
2021/11/10 20:50:15;;;;;;;11.73;8.10;;;;;;;-142.99;100.00;49805.28;5040901;28;20060;-76
2021/11/10 20:52:44;;;;;;;18.50;9.30;;;;;;;-142.99;100.00;49781.44;5045395;28;20136;-75
2021/11/10 20:55:16;;;;;;;11.30;6.65;;;;;;;-142.99;100.00;49783.41;5044092;28;20111;-77
2021/11/10 20:57:51;;;;;;;10.18;6.47;;;;;;;-142.99;100.00;49813.25;5026513;28;20063;-79
2021/11/10 21:00:25;;;;;;;12.43;7.82;;;;;;;-142.99;100.00;49783.41;5027637;28;20199;-77
2021/11/10 21:03:19;;;;;;;11.52;8.02;;;;;;;-142.99;100.00;49755.59;4995841;28;20983;-77
2021/11/10 21:05:51;;;;;;;14.27;9.00;;;;;;;-142.99;100.00;49703.91;5009802;28;20142;-78
2021/11/10 21:15:11;;;;;;;20.20;12.80;;;;;;;-142.99;100.00;49781.44;5063156;27;20604;-78
2021/11/10 21:17:42;;;;;;;12.27;6.57;;;;;;;-142.99;100.00;49771.50;5051805;28;20042;-77
2021/11/10 21:20:13;;;;;;;8.68;5.75;;;;;;;-142.99;100.00;49753.59;5039634;28;20059;-79
2021/11/10 21:23:08;;;;;;;7.90;4.88;;;;;;;-142.99;100.00;49809.25;5042833;28;20153;-76
2021/11/10 21:35:19;;;;;;;8.95;6.90;;;;;;;-142.99;100.00;49759.56;5099887;27;20124;-78
2021/11/10 21:37:50;;;;;;;10.15;6.15;;;;;;;-142.99;100.00;49743.66;5105019;27;20051;-75
2021/11/10 21:40:20;;;;;;;9.80;6.55;;;;;;;-142.99;100.00;49795.34;5103330;27;20047;-75
2021/11/10 21:42:49;;;;;;;12.35;6.65;;;;;;;-142.99;100.00;49743.66;5102740;27;20383;-74
2021/11/10 21:45:18;;;;;;;15.35;7.13;;;;;;;-142.99;100.00;49763.53;5101891;28;20134;-76
2021/11/10 21:47:48;;;;;;;8.50;6.82;;;;;;;-142.99;100.00;49807.28;5106473;27;20047;-78
2021/11/10 21:50:18;;;;;;;14.35;7.00;;;;;;;-142.99;100.00;49777.44;5088523;28;20399;-77
2021/11/10 21:52:46;;;;;;;11.02;7.97;;;;;;;-142.99;100.00;49779.44;5107040;27;21060;-78
2021/11/10 21:55:14;;;;;;;14.55;7.85;;;;;;;-142.99;100.00;49805.28;5105941;27;20039;-76
2021/11/10 21:57:42;;;;;;;14.48;10.20;;;;;;;-142.99;100.00;49809.25;5105818;27;20936;-79
2021/11/10 22:00:19;;;;;;;8.95;7.15;;;;;;;-142.99;100.00;49795.34;5103101;28;20039;-79
2021/11/10 22:02:47;;;;;;;15.48;8.13;;;;;;;-142.99;100.00;49791.38;5122497;27;20051;-77
2021/11/10 22:05:17;;;;;;;15.48;8.52;;;;;;;-142.99;100.00;49823.19;5088497;28;20044;-78
2021/11/10 22:07:45;;;;;;;12.38;7.85;;;;;;;-142.99;100.00;49811.25;5092656;27;20394;-80
2021/11/10 22:10:16;;;;;;;12.18;8.30;;;;;;;-142.99;100.00;49757.56;5086789;27;20189;-79
2021/11/10 22:12:48;;;;;;;13.43;7.65;;;;;;;-142.99;100.00;49733.72;5061831;28;21041;-77
2021/11/10 22:15:18;;;;;;;16.27;8.38;;;;;;;-142.99;100.00;49779.44;5085795;27;20075;-79
2021/11/10 22:17:45;;;;;;;13.30;6.78;;;;;;;-142.99;100.00;49779.44;5083313;27;20062;-77
2021/11/10 22:20:13;;;;;;;14.73;6.63;;;;;;;-142.99;100.00;49773.47;5080259;28;20136;-76
2021/11/10 22:22:41;;;;;;;8.48;6.50;;;;;;;-142.99;100.00;49797.34;5083221;27;20051;-76
2021/11/10 22:25:09;;;;;;;12.60;6.40;;;;;;;-142.99;100.00;49771.50;5079865;27;20443;-77
2021/11/10 22:27:36;;;;;;;13.52;6.72;;;;;;;-142.99;100.00;49821.19;5083280;27;20494;-77
2021/11/10 22:30:06;;;;;;;11.07;6.15;;;;;;;-142.99;100.00;49789.38;5091747;27;20139;-75
2021/11/10 22:32:32;;;;;;;9.07;6.05;;;;;;;-142.99;100.00;49803.28;5082580;27;20082;-76
2021/11/10 22:34:59;;;;;;;9.65;6.47;;;;;;;-142.99;100.00;49847.03;5077382;28;20043;-77
2021/11/10 22:37:30;;;;;;;13.20;7.72;;;;;;;-142.99;100.00;49821.19;5082002;27;20056;-78
2021/11/10 22:39:59;;;;;;;10.55;6.55;;;;;;;-142.99;100.00;49815.22;5080204;28;20096;-77
2021/11/10 22:42:26;;;;;;;8.10;6.25;;;;;;;-142.99;100.00;49813.25;5079772;27;20052;-78
2021/11/10 22:44:54;;;;;;;10.55;6.85;;;;;;;-142.99;100.00;49829.16;5085511;27;20048;-80
2021/11/10 22:47:21;;;;;;;9.90;5.95;;;;;;;-142.99;100.00;49817.22;5071405;28;20392;-79
2021/11/10 22:49:48;;;;;;;9.23;5.75;;;;;;;-142.99;100.00;49833.13;5056480;28;20475;-78
2021/11/10 22:52:15;;;;;;;8.13;6.28;;;;;;;-142.99;100.00;49809.25;5067935;28;20384;-77
2021/11/10 22:54:42;;;;;;;10.20;5.32;;;;;;;-142.99;100.00;49827.16;5063151;28;20052;-74
2021/11/10 22:59:30;;;;;;;11.73;5.05;;;;;;;-142.99;100.00;49819.19;5051555;27;20485;-76
2021/11/10 23:02:02;;;;;;;9.32;5.28;;;;;;;-142.99;100.00;49807.28;5053107;28;20963;-76
2021/11/10 23:04:29;;;;;;;8.95;6.28;;;;;;;-142.99;100.00;49811.25;5054556;28;20111;-75
2021/11/10 23:06:56;;;;;;;8.45;5.30;;;;;;;-142.99;100.00;49833.13;5049442;28;20044;-76
2021/11/10 23:09:23;;;;;;;9.65;4.90;;;;;;;-142.99;100.00;49807.28;5034036;28;20053;-75
2021/11/10 23:11:50;;;;;;;11.85;6.07;;;;;;;-142.99;100.00;49795.34;5018281;28;20138;-75
2021/11/10 23:14:19;;;;;;;9.60;5.68;;;;;;;-142.99;100.00;49781.44;5038932;28;20061;-75
2021/11/10 23:16:46;;;;;;;7.65;5.63;;;;;;;-142.99;100.00;49815.22;5033660;28;20465;-74
2021/11/10 23:19:15;;;;;;;8.25;6.05;;;;;;;-142.99;100.00;49763.53;5035496;28;20163;-76
2021/11/10 23:21:42;;;;;;;11.15;5.85;;;;;;;-142.99;100.00;49787.41;5035362;28;20143;-75
2021/11/10 23:24:09;;;;;;;11.00;6.85;;;;;;;-142.99;100.00;49783.41;5034285;28;20409;-76
2021/11/10 23:26:36;;;;;;;10.70;7.15;;;;;;;-142.99;100.00;49803.28;5029837;28;20147;-76
2021/11/10 23:29:04;;;;;;;12.93;7.80;;;;;;;-142.99;100.00;49829.16;5033229;28;20500;-76
2021/11/10 23:31:31;;;;;;;12.40;6.93;;;;;;;-142.99;100.00;49783.41;5037271;28;20137;-78
2021/11/10 23:33:59;;;;;;;12.07;7.03;;;;;;;-142.99;100.00;49821.19;5034323;28;20072;-77
2021/11/10 23:36:29;;;;;;;13.23;7.55;;;;;;;-142.99;100.00;49795.34;5032704;28;20057;-78
2021/11/10 23:38:57;;;;;;;9.70;6.80;;;;;;;-142.99;100.00;49823.19;5014070;28;20547;-77
2021/11/10 23:41:24;;;;;;;14.68;7.35;;;;;;;-142.99;100.00;49825.16;5036675;28;20041;-78
2021/11/10 23:43:53;;;;;;;9.95;7.22;;;;;;;-142.99;100.00;49817.22;5038001;28;20441;-76
2021/11/10 23:46:20;;;;;;;10.00;7.07;;;;;;;-142.99;100.00;49809.25;5033548;28;20456;-77
2021/11/10 23:48:47;;;;;;;10.00;7.25;;;;;;;-142.99;100.00;49785.41;5020466;28;20111;-76
2021/11/10 23:51:14;;;;;;;10.85;6.55;;;;;;;-142.99;100.00;49795.34;5039981;28;20459;-77
2021/11/10 23:53:42;;;;;;;14.77;6.82;;;;;;;-142.99;100.00;49783.41;5028875;28;20040;-76
2021/11/10 23:56:09;;;;;;;14.68;6.53;;;;;;;-142.99;100.00;49813.25;5044489;28;20450;-77
2021/11/10 23:58:35;;;;;;;11.40;6.00;;;;;;;-142.99;100.00;49787.41;5022092;28;20919;-77
